createdAt,value
2019-05-05T00:01:00.304Z,0
2019-05-05T00:02:00.806Z,0
2019-05-05T00:03:00.690Z,0
2019-05-05T00:04:14.433Z,0
2019-05-05T00:04:59.775Z,0
2019-05-05T00:06:00.088Z,0
2019-05-05T00:07:00.144Z,0
2019-05-05T00:07:59.531Z,0
2019-05-05T00:09:00.030Z,0
2019-05-05T00:10:00.356Z,0
2019-05-05T00:11:02.319Z,0
2019-05-05T00:11:59.907Z,0
2019-05-05T00:13:00.293Z,0
2019-05-05T00:14:00.528Z,0
2019-05-05T00:15:00.358Z,0
2019-05-05T00:16:00.400Z,0
2019-05-05T00:16:59.899Z,0
2019-05-05T00:18:00.350Z,0
2019-05-05T00:19:02.105Z,0
2019-05-05T00:20:00.227Z,0
2019-05-05T00:21:00.744Z,0
2019-05-05T00:22:00.374Z,0
2019-05-05T00:22:59.868Z,0
2019-05-05T00:24:00.613Z,0
2019-05-05T00:24:59.930Z,0
2019-05-05T00:26:00.573Z,0
2019-05-05T00:27:00.899Z,0
2019-05-05T00:27:59.863Z,0
2019-05-05T00:29:00.676Z,0
2019-05-05T00:30:00.146Z,0
2019-05-05T00:31:00.659Z,0
2019-05-05T00:32:00.030Z,0
2019-05-05T00:33:00.513Z,0
2019-05-05T00:34:05.666Z,0
2019-05-05T00:35:00.407Z,0
2019-05-05T00:35:59.808Z,0
2019-05-05T00:37:00.449Z,0
2019-05-05T00:37:59.752Z,0
2019-05-05T00:39:00.746Z,0
2019-05-05T00:40:00.298Z,0
2019-05-05T00:41:00.255Z,0
2019-05-05T00:42:00.783Z,0
2019-05-05T00:42:59.978Z,0
2019-05-05T00:44:00.651Z,0
2019-05-05T00:45:00.559Z,0
2019-05-05T00:46:00.933Z,0
2019-05-05T00:47:00.262Z,0
2019-05-05T00:47:59.736Z,0
2019-05-05T00:49:00.348Z,0
2019-05-05T00:50:01.642Z,0
2019-05-05T00:51:04.617Z,0
2019-05-05T00:51:59.914Z,0
2019-05-05T00:53:00.323Z,0
2019-05-05T00:54:00.696Z,0
2019-05-05T00:55:00.810Z,0
2019-05-05T00:55:59.962Z,0
2019-05-05T00:57:00.042Z,0
2019-05-05T00:58:00.158Z,0
2019-05-05T00:59:00.529Z,0
2019-05-05T00:59:59.691Z,0
2019-05-05T01:01:00.077Z,0
2019-05-05T01:02:00.546Z,0
2019-05-05T01:02:59.921Z,0
2019-05-05T01:03:59.906Z,0
2019-05-05T01:05:00.347Z,0
2019-05-05T01:06:00.577Z,0
2019-05-05T01:06:59.667Z,0
2019-05-05T01:08:00.035Z,0
2019-05-05T01:09:00.575Z,0
2019-05-05T01:09:59.596Z,0
2019-05-05T01:11:00.055Z,0
2019-05-05T01:12:00.266Z,0
2019-05-05T01:12:59.806Z,0
2019-05-05T01:14:36.838Z,0
2019-05-05T01:15:00.491Z,0
2019-05-05T01:15:59.557Z,0
2019-05-05T01:16:59.890Z,0
2019-05-05T01:18:02.147Z,0
2019-05-05T01:19:34.999Z,0
2019-05-05T01:20:17.223Z,0
2019-05-05T01:21:00.475Z,0
2019-05-05T01:21:59.697Z,0
2019-05-05T01:23:00.610Z,0
2019-05-05T01:24:00.144Z,0
2019-05-05T01:25:00.719Z,0
2019-05-05T01:26:01.114Z,0
2019-05-05T01:27:00.366Z,0
2019-05-05T01:27:59.839Z,0
2019-05-05T01:29:01.553Z,0
2019-05-05T01:30:04.575Z,0
2019-05-05T01:31:00.189Z,0
2019-05-05T01:31:59.990Z,0
2019-05-05T01:33:01.285Z,0
2019-05-05T01:34:01.928Z,0
2019-05-05T01:35:00.230Z,0
2019-05-05T01:36:00.455Z,0
2019-05-05T01:36:59.645Z,0
2019-05-05T01:38:00.402Z,0
2019-05-05T01:39:00.744Z,0
2019-05-05T01:39:59.638Z,0
2019-05-05T01:40:59.991Z,0
2019-05-05T01:41:59.592Z,0
2019-05-05T01:42:59.995Z,0
2019-05-05T01:44:04.611Z,0
2019-05-05T01:45:00.575Z,0
2019-05-05T01:45:59.945Z,0
2019-05-05T01:47:00.262Z,0
2019-05-05T01:47:59.855Z,0
2019-05-05T01:55:27.895Z,0
2019-05-05T01:56:40.499Z,0
2019-05-05T01:57:39.746Z,0
2019-05-05T01:58:40.148Z,0
2019-05-05T01:59:40.626Z,0
2019-05-05T02:00:40.059Z,0
2019-05-05T02:01:40.414Z,0
2019-05-05T02:02:39.515Z,0
2019-05-05T02:03:40.277Z,0
2019-05-05T02:04:39.889Z,0
2019-05-05T02:05:40.088Z,0
2019-05-05T02:06:40.300Z,0
2019-05-05T02:07:39.500Z,0
2019-05-05T02:08:40.162Z,0
2019-05-05T02:09:40.639Z,0
2019-05-05T02:10:40.504Z,0
2019-05-05T02:11:40.575Z,0
2019-05-05T02:12:40.536Z,0
2019-05-05T02:13:39.907Z,0
2019-05-05T02:14:40.490Z,0
2019-05-05T02:15:39.633Z,0
2019-05-05T02:16:40.336Z,0
2019-05-05T02:17:44.531Z,0
2019-05-05T02:18:39.864Z,0
2019-05-05T02:19:40.255Z,0
2019-05-05T02:20:42.077Z,0
2019-05-05T02:21:40.575Z,0
2019-05-05T02:22:41.162Z,0
2019-05-05T02:23:40.485Z,0
2019-05-05T02:24:40.616Z,0
2019-05-05T02:25:39.868Z,0
2019-05-05T02:26:40.249Z,0
2019-05-05T02:27:39.612Z,0
2019-05-05T02:28:40.294Z,0
2019-05-05T02:29:40.653Z,0
2019-05-05T02:30:41.374Z,0
2019-05-05T02:31:41.341Z,0
2019-05-05T02:32:41.432Z,0
2019-05-05T02:33:40.572Z,0
2019-05-05T02:34:41.527Z,0
2019-05-05T02:35:40.573Z,0
2019-05-05T02:36:40.812Z,0
2019-05-05T02:37:40.984Z,0
2019-05-05T02:38:40.866Z,0
2019-05-05T02:40:07.479Z,0
2019-05-05T02:40:40.320Z,0
2019-05-05T02:41:40.076Z,0
2019-05-05T02:42:40.803Z,0
2019-05-05T02:43:44.711Z,0
2019-05-05T02:44:40.023Z,0
2019-05-05T02:45:40.864Z,0
2019-05-05T02:46:40.934Z,0
2019-05-05T02:47:40.243Z,0
2019-05-05T02:48:40.800Z,0
2019-05-05T02:49:40.384Z,0
2019-05-05T02:51:15.054Z,0
2019-05-05T02:51:40.746Z,0
2019-05-05T02:52:39.968Z,0
2019-05-05T02:53:39.402Z,0
2019-05-05T02:54:39.087Z,0
2019-05-05T02:55:44.098Z,0
2019-05-05T02:56:39.815Z,0
2019-05-05T02:57:39.946Z,0
2019-05-05T02:58:39.233Z,0
2019-05-05T02:59:40.485Z,0
2019-05-05T03:00:39.701Z,0
2019-05-05T03:01:39.395Z,0
2019-05-05T03:02:40.875Z,0
2019-05-05T03:03:39.529Z,0
2019-05-05T03:04:39.119Z,0
2019-05-05T03:05:39.354Z,0
2019-05-05T03:06:39.566Z,0
2019-05-05T03:07:39.676Z,0
2019-05-05T03:08:43.782Z,0
2019-05-05T03:09:39.971Z,0
2019-05-05T03:10:39.312Z,0
2019-05-05T03:11:39.621Z,0
2019-05-05T03:12:39.872Z,0
2019-05-05T03:13:39.036Z,0
2019-05-05T03:14:39.681Z,0
2019-05-05T03:15:41.473Z,0
2019-05-05T03:16:39.366Z,0
2019-05-05T03:17:41.154Z,0
2019-05-05T03:18:39.129Z,0
2019-05-05T03:19:39.200Z,0
2019-05-05T03:20:40.023Z,0
2019-05-05T03:21:41.359Z,0
2019-05-05T03:22:39.425Z,0
2019-05-05T03:23:41.236Z,0
2019-05-05T03:24:39.377Z,0
2019-05-05T03:25:41.369Z,0
2019-05-05T03:26:39.719Z,0
2019-05-05T03:27:39.413Z,0
2019-05-05T03:28:39.671Z,0
2019-05-05T03:29:41.310Z,0
2019-05-05T03:30:44.470Z,0
2019-05-05T03:31:40.550Z,0
2019-05-05T03:32:45.102Z,0
2019-05-05T03:33:40.441Z,0
2019-05-05T03:34:39.654Z,0
2019-05-05T03:35:39.800Z,0
2019-05-05T03:36:39.230Z,0
2019-05-05T03:37:39.649Z,0
2019-05-05T03:38:39.284Z,0
2019-05-05T03:39:39.414Z,0
2019-05-05T03:40:39.615Z,0
2019-05-05T03:41:39.676Z,0
2019-05-05T03:42:39.145Z,0
2019-05-05T03:43:39.521Z,0
2019-05-05T03:44:41.316Z,0
2019-05-05T03:45:39.498Z,0
2019-05-05T03:46:39.664Z,0
2019-05-05T03:47:41.505Z,0
2019-05-05T03:48:39.930Z,0
2019-05-05T03:49:39.196Z,0
2019-05-05T03:50:39.391Z,0
2019-05-05T03:51:39.769Z,0
2019-05-05T03:52:39.914Z,0
2019-05-05T03:53:39.121Z,0
2019-05-05T03:54:39.576Z,0
2019-05-05T03:55:39.797Z,0
2019-05-05T03:56:39.998Z,0
2019-05-05T03:57:39.209Z,0
2019-05-05T03:58:39.706Z,0
2019-05-05T03:59:39.039Z,0
2019-05-05T04:00:39.266Z,0
2019-05-05T04:01:40.277Z,0
2019-05-05T04:02:39.360Z,0
2019-05-05T04:03:39.368Z,0
2019-05-05T04:04:49.426Z,0
2019-05-05T04:05:39.321Z,0
2019-05-05T04:06:39.242Z,0
2019-05-05T04:07:41.494Z,0
2019-05-05T04:08:39.172Z,0
2019-05-05T04:09:39.823Z,0
2019-05-05T04:10:41.309Z,0
2019-05-05T04:11:39.143Z,0
2019-05-05T04:12:43.473Z,0
2019-05-05T04:13:40.006Z,0
2019-05-05T04:14:40.052Z,0
2019-05-05T04:15:39.129Z,0
2019-05-05T04:16:39.491Z,0
2019-05-05T04:17:44.041Z,0
2019-05-05T04:18:39.403Z,0
2019-05-05T04:19:39.902Z,0
2019-05-05T04:20:41.446Z,0
2019-05-05T04:21:44.978Z,0
2019-05-05T04:22:39.625Z,0
2019-05-05T04:23:41.258Z,0
2019-05-05T04:24:39.516Z,0
2019-05-05T04:25:40.342Z,0
2019-05-05T04:26:41.372Z,0
2019-05-05T04:27:39.525Z,0
2019-05-05T04:28:39.790Z,0
2019-05-05T04:29:39.900Z,0
2019-05-05T04:30:39.563Z,0
2019-05-05T04:31:39.748Z,0
2019-05-05T04:32:40.041Z,0
2019-05-05T04:33:39.479Z,0
2019-05-05T04:34:43.804Z,0
2019-05-05T04:35:39.269Z,0
2019-05-05T04:36:39.627Z,0
2019-05-05T04:37:39.427Z,0
2019-05-05T04:38:40.011Z,5
2019-05-05T04:39:39.667Z,5
2019-05-05T04:40:39.881Z,5
2019-05-05T04:41:39.212Z,5
2019-05-05T04:42:43.787Z,5
2019-05-05T04:43:39.184Z,5
2019-05-05T04:44:39.968Z,5
2019-05-05T04:45:40.102Z,5
2019-05-05T04:46:39.344Z,5
2019-05-05T04:47:43.579Z,5
2019-05-05T04:48:40.119Z,5
2019-05-05T04:49:39.303Z,5
2019-05-05T04:50:39.900Z,5
2019-05-05T04:51:56.603Z,5
2019-05-05T04:52:39.633Z,5
2019-05-05T04:53:39.980Z,5
2019-05-05T04:54:41.568Z,5
2019-05-05T04:55:41.490Z,10
2019-05-05T04:56:42.158Z,10
2019-05-05T04:57:40.710Z,10
2019-05-05T04:58:41.414Z,10
2019-05-05T04:59:39.325Z,10
2019-05-05T05:00:39.821Z,10
2019-05-05T05:01:41.288Z,10
2019-05-05T05:02:39.618Z,10
2019-05-05T05:03:39.945Z,10
2019-05-05T05:04:49.768Z,10
2019-05-05T05:05:41.514Z,10
2019-05-05T05:06:39.704Z,15
2019-05-05T05:07:39.749Z,15
2019-05-05T05:08:39.122Z,15
2019-05-05T05:09:39.629Z,15
2019-05-05T05:10:39.868Z,15
2019-05-05T05:11:39.164Z,15
2019-05-05T05:12:39.807Z,15
2019-05-05T05:13:39.995Z,15
2019-05-05T05:14:41.414Z,15
2019-05-05T05:15:39.314Z,15
2019-05-05T05:16:40.932Z,15
2019-05-05T05:17:40.084Z,15
2019-05-05T05:18:40.010Z,15
2019-05-05T05:19:41.331Z,15
2019-05-05T05:20:39.303Z,15
2019-05-05T05:21:39.495Z,15
2019-05-05T05:22:41.176Z,15
2019-05-05T05:23:41.969Z,10
2019-05-05T05:24:39.987Z,15
2019-05-05T05:25:39.888Z,15
2019-05-05T05:26:41.532Z,15
2019-05-05T05:27:41.311Z,15
2019-05-05T05:28:39.539Z,15
2019-05-05T05:29:39.862Z,15
2019-05-05T05:30:40.315Z,15
2019-05-05T05:31:41.504Z,20
2019-05-05T05:32:44.321Z,20
2019-05-05T05:33:39.760Z,20
2019-05-05T05:34:48.953Z,20
2019-05-05T05:35:41.390Z,20
2019-05-05T05:36:39.533Z,20
2019-05-05T05:37:39.577Z,20
2019-05-05T05:38:40.095Z,20
2019-05-05T05:39:41.326Z,20
2019-05-05T05:40:39.470Z,25
2019-05-05T05:41:39.646Z,25
2019-05-05T05:42:43.763Z,25
2019-05-05T05:43:41.249Z,30
2019-05-05T05:44:39.353Z,30
2019-05-05T05:45:39.542Z,30
2019-05-05T05:46:41.194Z,30
2019-05-05T05:47:41.525Z,30
2019-05-05T05:48:39.808Z,30
2019-05-05T05:49:40.108Z,30
2019-05-05T05:50:39.271Z,30
2019-05-05T05:51:39.479Z,30
2019-05-05T05:52:39.651Z,30
2019-05-05T05:53:40.108Z,25
2019-05-05T05:54:41.740Z,30
2019-05-05T05:55:39.616Z,35
2019-05-05T05:56:39.594Z,30
2019-05-05T05:57:39.793Z,30
2019-05-05T05:58:41.480Z,30
2019-05-05T05:59:39.377Z,30
2019-05-05T06:00:41.670Z,30
2019-05-05T06:01:39.873Z,30
2019-05-05T06:02:41.234Z,40
2019-05-05T06:03:39.301Z,45
2019-05-05T06:04:48.926Z,35
2019-05-05T06:05:39.718Z,30
2019-05-05T06:06:40.190Z,55
2019-05-05T06:07:41.443Z,55
2019-05-05T06:08:43.927Z,20
2019-05-05T06:09:39.778Z,30
2019-05-05T06:10:41.651Z,20
2019-05-05T06:11:39.776Z,20
2019-05-05T06:12:41.786Z,35
2019-05-05T06:13:41.631Z,25
2019-05-05T06:14:39.509Z,20
2019-05-05T06:15:41.605Z,135
2019-05-05T06:16:39.556Z,20
2019-05-05T06:17:39.632Z,20
2019-05-05T06:18:40.190Z,25
2019-05-05T06:19:41.521Z,20
2019-05-05T06:20:39.834Z,45
2019-05-05T06:21:43.844Z,25
2019-05-05T06:22:44.447Z,20
2019-05-05T06:23:39.709Z,15
2019-05-05T06:24:39.943Z,20
2019-05-05T06:25:44.452Z,20
2019-05-05T06:26:39.768Z,90
2019-05-05T06:27:39.595Z,20
2019-05-05T06:28:39.639Z,20
2019-05-05T06:29:39.914Z,25
2019-05-05T06:30:44.088Z,25
2019-05-05T06:31:41.914Z,20
2019-05-05T06:32:39.607Z,20
2019-05-05T06:33:40.121Z,25
2019-05-05T06:34:49.736Z,20
2019-05-05T06:35:41.507Z,45
2019-05-05T06:36:39.712Z,70
2019-05-05T06:37:39.518Z,25
2019-05-05T06:38:39.911Z,20
2019-05-05T06:39:41.279Z,25
2019-05-05T06:40:39.416Z,25
2019-05-05T06:41:39.501Z,20
2019-05-05T06:42:39.876Z,20
2019-05-05T06:43:40.046Z,65
2019-05-05T06:44:41.659Z,55
2019-05-05T06:45:39.594Z,35
2019-05-05T06:46:39.614Z,35
2019-05-05T06:47:39.318Z,30
2019-05-05T06:48:39.964Z,25
2019-05-05T06:49:43.728Z,25
2019-05-05T06:50:39.745Z,30
2019-05-05T06:51:41.397Z,30
2019-05-05T06:52:56.305Z,35
2019-05-05T06:53:39.503Z,50
2019-05-05T06:54:40.448Z,75
2019-05-05T06:55:39.397Z,50
2019-05-05T06:56:39.497Z,95
2019-05-05T06:57:39.522Z,85
2019-05-05T06:58:39.967Z,70
2019-05-05T06:59:40.152Z,30
2019-05-05T07:00:40.389Z,25
2019-05-05T07:01:41.523Z,25
2019-05-05T07:02:39.559Z,25
2019-05-05T07:03:41.413Z,30
2019-05-05T07:05:43.683Z,35
2019-05-05T07:06:51.499Z,30
2019-05-05T07:07:39.634Z,25
2019-05-05T07:08:40.103Z,25
2019-05-05T07:09:41.352Z,25
2019-05-05T07:10:41.809Z,25
2019-05-05T07:11:39.502Z,20
2019-05-05T07:12:40.285Z,20
2019-05-05T07:13:41.726Z,20
2019-05-05T07:14:41.778Z,20
2019-05-05T07:15:39.508Z,20
2019-05-05T07:16:39.776Z,20
2019-05-05T07:17:41.609Z,25
2019-05-05T07:18:39.873Z,25
2019-05-05T07:19:39.784Z,25
2019-05-05T07:20:40.527Z,25
2019-05-05T07:21:39.523Z,25
2019-05-05T07:22:40.019Z,25
2019-05-05T07:23:41.766Z,20
2019-05-05T07:24:40.137Z,20
2019-05-05T07:25:54.911Z,20
2019-05-05T07:26:39.351Z,20
2019-05-05T07:27:41.633Z,20
2019-05-05T07:28:39.611Z,20
2019-05-05T07:29:39.617Z,20
2019-05-05T07:30:44.198Z,20
2019-05-05T07:31:39.692Z,20
2019-05-05T07:32:41.605Z,20
2019-05-05T07:33:39.935Z,20
2019-05-05T07:35:53.080Z,25
2019-05-05T07:36:44.203Z,25
2019-05-05T07:37:39.738Z,25
2019-05-05T07:38:41.609Z,25
2019-05-05T07:39:39.421Z,35
2019-05-05T07:40:39.908Z,45
2019-05-05T07:41:40.568Z,35
2019-05-05T07:42:43.886Z,25
2019-05-05T07:43:39.795Z,20
2019-05-05T07:44:41.731Z,20
2019-05-05T07:45:39.670Z,20
2019-05-05T07:46:39.907Z,15
2019-05-05T07:47:39.647Z,15
2019-05-05T07:48:41.697Z,20
2019-05-05T07:49:41.314Z,15
2019-05-05T07:50:58.041Z,20
2019-05-05T07:51:41.488Z,20
2019-05-05T07:52:39.679Z,20
2019-05-05T07:53:41.448Z,20
2019-05-05T07:54:39.832Z,20
2019-05-05T07:55:39.592Z,20
2019-05-05T07:56:39.736Z,20
2019-05-05T07:57:39.445Z,20
2019-05-05T07:58:39.798Z,20
2019-05-05T07:59:41.876Z,20
2019-05-05T08:00:40.035Z,20
2019-05-05T08:01:43.413Z,20
2019-05-05T08:02:43.674Z,20
2019-05-05T08:03:41.677Z,20
2019-05-05T08:04:39.904Z,20
2019-05-05T08:05:41.288Z,25
2019-05-05T08:06:47.352Z,25
2019-05-05T08:07:45.791Z,25
2019-05-05T08:09:49.229Z,25
2019-05-05T08:10:04.508Z,25
2019-05-05T08:11:04.752Z,25
2019-05-05T08:12:04.285Z,25
2019-05-05T08:13:04.627Z,25
2019-05-05T08:14:04.077Z,25
2019-05-05T08:15:07.577Z,30
2019-05-05T08:16:14.070Z,30
2019-05-05T08:17:04.096Z,40
2019-05-05T08:18:07.886Z,35
2019-05-05T08:19:03.927Z,35
2019-05-05T08:20:03.955Z,35
2019-05-05T08:21:04.241Z,35
2019-05-05T08:22:03.825Z,35
2019-05-05T08:23:01.679Z,35
2019-05-05T08:24:08.210Z,35
2019-05-05T08:25:07.337Z,30
2019-05-05T08:26:04.548Z,25
2019-05-05T08:27:08.213Z,20
2019-05-05T08:28:04.255Z,20
2019-05-05T08:29:04.615Z,20
2019-05-05T08:30:05.727Z,25
2019-05-05T08:31:03.903Z,20
2019-05-05T08:32:04.331Z,20
2019-05-05T08:33:05.197Z,20
2019-05-05T08:34:03.812Z,20
2019-05-05T08:35:18.055Z,20
2019-05-05T08:36:04.535Z,20
2019-05-05T08:37:08.953Z,15
2019-05-05T08:38:04.269Z,15
2019-05-05T08:39:07.238Z,15
2019-05-05T08:40:07.538Z,15
2019-05-05T08:41:04.527Z,10
2019-05-05T08:42:04.257Z,15
2019-05-05T08:43:04.512Z,15
2019-05-05T08:44:03.736Z,15
2019-05-05T08:45:04.559Z,15
2019-05-05T08:46:04.807Z,20
2019-05-05T08:47:04.194Z,20
2019-05-05T08:48:04.597Z,20
2019-05-05T08:49:01.764Z,20
2019-05-05T08:50:13.496Z,25
2019-05-05T08:51:04.771Z,30
2019-05-05T08:52:03.988Z,30
2019-05-05T08:53:04.194Z,25
2019-05-05T08:54:03.872Z,25
2019-05-05T08:55:04.437Z,25
2019-05-05T08:56:04.043Z,25
2019-05-05T08:57:04.180Z,25
2019-05-05T08:58:04.507Z,30
2019-05-05T08:59:03.792Z,35
2019-05-05T09:00:04.830Z,35
2019-05-05T09:01:01.649Z,35
2019-05-05T09:02:04.213Z,40
2019-05-05T09:03:03.733Z,45
2019-05-05T09:04:01.610Z,50
2019-05-05T09:05:14.414Z,40
2019-05-05T09:06:04.423Z,40
2019-05-05T09:07:04.691Z,40
2019-05-05T09:08:04.480Z,40
2019-05-05T09:09:03.838Z,35
2019-05-05T09:10:03.982Z,35
2019-05-05T09:11:04.702Z,35
2019-05-05T09:12:04.296Z,35
2019-05-05T09:13:03.731Z,35
2019-05-05T09:14:01.693Z,35
2019-05-05T09:15:04.171Z,30
2019-05-05T09:16:03.721Z,30
2019-05-05T09:17:04.401Z,30
2019-05-05T09:18:04.688Z,30
2019-05-05T09:19:04.116Z,35
2019-05-05T09:20:01.564Z,35
2019-05-05T09:21:04.334Z,35
2019-05-05T09:22:04.495Z,35
2019-05-05T09:23:04.126Z,30
2019-05-05T09:24:14.366Z,30
2019-05-05T09:25:04.272Z,30
2019-05-05T09:26:02.038Z,30
2019-05-05T09:27:03.595Z,35
2019-05-05T09:28:03.755Z,50
2019-05-05T09:29:04.211Z,35
2019-05-05T09:30:03.853Z,40
2019-05-05T09:31:01.499Z,50
2019-05-05T09:32:03.831Z,40
2019-05-05T09:33:03.554Z,35
2019-05-05T09:34:01.500Z,35
2019-05-05T09:35:17.166Z,35
2019-05-05T09:36:04.623Z,35
2019-05-05T09:37:03.629Z,35
2019-05-05T09:38:03.973Z,35
2019-05-05T09:39:04.411Z,35
2019-05-05T09:40:04.482Z,35
2019-05-05T09:41:03.767Z,35
2019-05-05T09:42:01.501Z,30
2019-05-05T09:43:01.443Z,30
2019-05-05T09:44:01.804Z,30
2019-05-05T09:45:02.017Z,30
2019-05-05T09:46:03.868Z,30
2019-05-05T09:47:04.377Z,30
2019-05-05T09:48:01.682Z,30
2019-05-05T09:49:02.040Z,30
2019-05-05T09:50:03.886Z,30
2019-05-05T09:51:04.105Z,30
2019-05-05T09:52:04.940Z,30
2019-05-05T09:53:03.969Z,30
2019-05-05T09:54:19.741Z,30
2019-05-05T09:55:03.780Z,30
2019-05-05T09:56:04.021Z,35
2019-05-05T09:57:01.740Z,35
2019-05-05T09:58:01.889Z,30
2019-05-05T09:59:03.761Z,30
2019-05-05T10:00:02.072Z,35
2019-05-05T10:01:03.940Z,35
2019-05-05T10:02:01.720Z,35
2019-05-05T10:03:03.787Z,35
2019-05-05T10:04:01.745Z,35
2019-05-05T10:05:14.633Z,40
2019-05-05T10:06:02.032Z,40
2019-05-05T10:07:00.470Z,40
2019-05-05T10:08:03.529Z,50
2019-05-05T10:09:01.692Z,45
2019-05-05T10:10:02.132Z,70
2019-05-05T10:11:04.059Z,90
2019-05-05T10:12:01.874Z,45
2019-05-05T10:13:04.111Z,55
2019-05-05T10:14:03.945Z,75
2019-05-05T10:15:02.091Z,45
2019-05-05T10:16:03.926Z,100
2019-05-05T10:17:04.634Z,90
2019-05-05T10:18:03.475Z,35
2019-05-05T10:19:02.026Z,30
2019-05-05T10:20:03.928Z,30
2019-05-05T10:21:01.872Z,25
2019-05-05T10:22:00.447Z,25
2019-05-05T10:23:04.632Z,20
2019-05-05T10:24:01.899Z,20
2019-05-05T10:25:06.738Z,20
2019-05-05T10:26:01.807Z,20
2019-05-05T10:27:04.868Z,20
2019-05-05T10:28:01.796Z,20
2019-05-05T10:29:04.191Z,20
2019-05-05T10:30:04.111Z,20
2019-05-05T10:31:01.721Z,20
2019-05-05T10:32:01.702Z,20
2019-05-05T10:33:03.731Z,20
2019-05-05T10:34:01.861Z,20
2019-05-05T10:35:13.801Z,20
2019-05-05T10:36:02.098Z,15
2019-05-05T10:37:01.484Z,20
2019-05-05T10:38:02.398Z,20
2019-05-05T10:39:04.380Z,20
2019-05-05T10:40:03.607Z,20
2019-05-05T10:41:04.063Z,20
2019-05-05T10:42:04.262Z,25
2019-05-05T10:43:01.776Z,25
2019-05-05T10:44:03.640Z,25
2019-05-05T10:45:01.651Z,25
2019-05-05T10:46:03.828Z,30
2019-05-05T10:47:04.274Z,30
2019-05-05T10:48:00.467Z,30
2019-05-05T10:49:04.926Z,35
2019-05-05T10:50:04.842Z,35
2019-05-05T10:51:01.711Z,30
2019-05-05T10:52:03.654Z,30
2019-05-05T10:53:04.154Z,30
2019-05-05T10:54:04.001Z,35
2019-05-05T10:55:03.922Z,35
2019-05-05T10:56:01.826Z,35
2019-05-05T10:57:00.476Z,35
2019-05-05T10:58:02.348Z,35
2019-05-05T10:59:13.064Z,35
2019-05-05T11:00:19.563Z,35
2019-05-05T11:01:04.160Z,40
2019-05-05T11:02:01.804Z,85
2019-05-05T11:03:03.973Z,90
2019-05-05T11:04:00.505Z,70
2019-05-05T11:05:17.077Z,70
2019-05-05T11:06:01.707Z,75
2019-05-05T11:07:04.279Z,90
2019-05-05T11:08:01.539Z,90
2019-05-05T11:09:01.971Z,90
2019-05-05T11:10:03.559Z,90
2019-05-05T11:11:01.021Z,90
2019-05-05T11:12:01.891Z,90
2019-05-05T11:13:01.302Z,90
2019-05-05T11:14:03.731Z,90
2019-05-05T11:15:04.037Z,95
2019-05-05T11:16:03.965Z,90
2019-05-05T11:17:04.090Z,100
2019-05-05T11:18:03.959Z,100
2019-05-05T11:19:36.830Z,65
2019-05-05T11:20:03.774Z,105
2019-05-05T11:21:03.981Z,55
2019-05-05T11:22:02.199Z,55
2019-05-05T11:23:02.354Z,50
2019-05-05T11:24:02.054Z,45
2019-05-05T11:25:13.840Z,35
2019-05-05T11:26:02.394Z,35
2019-05-05T11:27:01.904Z,35
2019-05-05T11:28:03.397Z,35
2019-05-05T11:29:04.060Z,35
2019-05-05T11:30:03.930Z,35
2019-05-05T11:31:01.659Z,35
2019-05-05T11:32:00.566Z,35
2019-05-05T11:33:00.654Z,35
2019-05-05T11:34:02.138Z,35
2019-05-05T11:35:01.372Z,35
2019-05-05T11:36:04.422Z,35
2019-05-05T11:37:03.685Z,35
2019-05-05T11:38:03.186Z,35
2019-05-05T11:39:01.623Z,35
2019-05-05T11:40:01.608Z,35
2019-05-05T11:41:04.907Z,30
2019-05-05T11:42:04.350Z,30
2019-05-05T11:43:03.727Z,30
2019-05-05T11:44:01.414Z,30
2019-05-05T11:45:00.690Z,30
2019-05-05T11:46:02.357Z,30
2019-05-05T11:47:03.725Z,30
2019-05-05T11:48:01.737Z,30
2019-05-05T11:49:02.275Z,30
2019-05-05T11:50:06.962Z,35
2019-05-05T11:51:04.278Z,35
2019-05-05T11:52:04.382Z,35
2019-05-05T11:53:03.874Z,35
2019-05-05T11:54:02.046Z,35
2019-05-05T11:55:17.537Z,35
2019-05-05T11:56:04.143Z,35
2019-05-05T11:57:01.797Z,35
2019-05-05T11:58:04.343Z,50
2019-05-05T11:59:03.871Z,35
2019-05-05T12:00:03.797Z,35
2019-05-05T12:01:03.702Z,35
2019-05-05T12:02:03.764Z,40
2019-05-05T12:03:03.787Z,40
2019-05-05T12:04:01.574Z,40
2019-05-05T12:05:01.949Z,45
2019-05-05T12:06:00.836Z,50
2019-05-05T12:07:00.684Z,45
2019-05-05T12:08:03.716Z,45
2019-05-05T12:09:00.554Z,45
2019-05-05T12:10:02.713Z,45
2019-05-05T12:11:04.394Z,45
2019-05-05T12:12:03.765Z,45
2019-05-05T12:13:01.613Z,40
2019-05-05T12:14:03.823Z,45
2019-05-05T12:15:04.133Z,40
2019-05-05T12:16:01.768Z,40
2019-05-05T12:17:00.900Z,40
2019-05-05T12:18:03.802Z,40
2019-05-05T12:19:01.899Z,40
2019-05-05T12:20:04.575Z,40
2019-05-05T12:21:02.344Z,85
2019-05-05T12:22:02.914Z,45
2019-05-05T12:23:04.399Z,40
2019-05-05T12:24:03.811Z,40
2019-05-05T12:25:01.501Z,50
2019-05-05T12:26:07.366Z,45
2019-05-05T12:27:03.652Z,45
2019-05-05T12:28:00.647Z,50
2019-05-05T12:29:02.657Z,50
2019-05-05T12:30:03.750Z,105
2019-05-05T12:31:01.016Z,50
2019-05-05T12:32:00.626Z,45
2019-05-05T12:33:00.552Z,45
2019-05-05T12:34:03.908Z,50
2019-05-05T12:36:01.895Z,50
2019-05-05T12:37:01.861Z,60
2019-05-05T12:38:02.445Z,50
2019-05-05T12:39:03.715Z,50
2019-05-05T12:40:03.949Z,55
2019-05-05T12:41:04.038Z,35
2019-05-05T12:42:04.572Z,35
2019-05-05T12:43:03.620Z,35
2019-05-05T12:44:03.352Z,35
2019-05-05T12:45:01.593Z,35
2019-05-05T12:50:17.067Z,20
2019-05-05T12:50:29.923Z,20
2019-05-05T12:51:28.912Z,20
2019-05-05T12:52:28.367Z,20
2019-05-05T12:53:29.071Z,15
2019-05-05T12:54:29.806Z,15
2019-05-05T12:55:44.595Z,15
2019-05-05T12:56:29.107Z,15
2019-05-05T12:57:29.341Z,15
2019-05-05T12:58:28.137Z,15
2019-05-05T12:59:30.185Z,10
2019-05-05T13:00:28.105Z,15
2019-05-05T13:01:29.955Z,15
2019-05-05T13:02:28.781Z,15
2019-05-05T13:03:29.238Z,15
2019-05-05T13:04:29.879Z,20
2019-05-05T13:05:37.110Z,20
2019-05-05T13:06:29.691Z,20
2019-05-05T13:07:29.563Z,20
2019-05-05T13:08:28.798Z,20
2019-05-05T13:09:29.670Z,20
2019-05-05T13:10:29.852Z,20
2019-05-05T13:11:29.488Z,20
2019-05-05T13:12:29.843Z,20
2019-05-05T13:13:28.418Z,20
2019-05-05T13:14:28.323Z,20
2019-05-05T13:15:30.002Z,20
2019-05-05T13:16:31.874Z,20
2019-05-05T13:17:29.712Z,20
2019-05-05T13:18:30.130Z,20
2019-05-05T13:19:29.672Z,20
2019-05-05T13:20:29.873Z,20
2019-05-05T13:21:29.182Z,20
2019-05-05T13:22:30.710Z,20
2019-05-05T13:23:28.848Z,20
2019-05-05T13:24:29.413Z,25
2019-05-05T13:25:28.257Z,20
2019-05-05T13:26:29.030Z,20
2019-05-05T13:27:34.220Z,20
2019-05-05T13:28:29.199Z,20
2019-05-05T13:29:30.358Z,20
2019-05-05T13:30:29.476Z,20
2019-05-05T13:31:30.256Z,20
2019-05-05T13:32:30.117Z,20
2019-05-05T13:33:30.271Z,20
2019-05-05T13:34:28.570Z,25
2019-05-05T13:35:39.292Z,25
2019-05-05T13:36:29.933Z,25
2019-05-05T13:37:29.836Z,25
2019-05-05T13:38:29.409Z,25
2019-05-05T13:39:30.435Z,25
2019-05-05T13:40:29.863Z,25
2019-05-05T13:41:28.973Z,25
2019-05-05T13:42:30.128Z,30
2019-05-05T13:43:29.063Z,30
2019-05-05T13:44:29.483Z,30
2019-05-05T13:45:28.994Z,30
2019-05-05T13:46:30.123Z,30
2019-05-05T13:47:29.127Z,35
2019-05-05T13:48:28.830Z,30
2019-05-05T13:49:29.459Z,30
2019-05-05T13:50:28.716Z,30
2019-05-05T13:51:29.505Z,25
2019-05-05T13:52:29.638Z,25
2019-05-05T13:53:29.206Z,25
2019-05-05T13:54:29.998Z,25
2019-05-05T13:55:29.390Z,25
2019-05-05T13:56:30.069Z,25
2019-05-05T13:57:29.897Z,30
2019-05-05T13:58:30.150Z,30
2019-05-05T13:59:30.914Z,35
2019-05-05T14:00:30.912Z,35
2019-05-05T14:01:33.981Z,35
2019-05-05T14:02:29.747Z,45
2019-05-05T14:03:28.932Z,35
2019-05-05T14:04:28.378Z,35
2019-05-05T14:05:43.666Z,40
2019-05-05T14:06:29.871Z,45
2019-05-05T14:07:29.302Z,35
2019-05-05T14:08:29.041Z,60
2019-05-05T14:09:28.331Z,35
2019-05-05T14:10:28.916Z,30
2019-05-05T14:11:29.962Z,30
2019-05-05T14:12:29.661Z,35
2019-05-05T14:13:30.060Z,35
2019-05-05T14:14:29.856Z,30
2019-05-05T14:15:28.779Z,30
2019-05-05T14:16:28.675Z,30
2019-05-05T14:17:28.413Z,35
2019-05-05T14:18:29.214Z,35
2019-05-05T14:19:30.137Z,30
2019-05-05T14:20:29.264Z,30
2019-05-05T14:21:29.767Z,30
2019-05-05T14:22:29.481Z,30
2019-05-05T14:23:29.309Z,30
2019-05-05T14:24:28.774Z,30
2019-05-05T14:25:29.739Z,30
2019-05-05T14:26:41.045Z,30
2019-05-05T14:27:29.372Z,30
2019-05-05T14:28:29.233Z,35
2019-05-05T14:29:29.515Z,30
2019-05-05T14:30:29.672Z,30
2019-05-05T14:31:30.040Z,35
2019-05-05T14:32:29.631Z,35
2019-05-05T14:33:29.042Z,30
2019-05-05T14:34:29.355Z,30
2019-05-05T14:35:43.366Z,35
2019-05-05T14:36:30.433Z,35
2019-05-05T14:37:30.320Z,35
2019-05-05T14:38:29.380Z,30
2019-05-05T14:39:29.456Z,30